sensor_id;sensor_type;location;lat;lon;timestamp;P1;durP1;ratioP1;P2;durP2;ratioP2
44384;SDS011;30101;32.778;34.994;2022-08-02T00:06:28;13.95;;;7.18;;
44384;SDS011;30101;32.778;34.994;2022-08-02T00:11:33;15.45;;;7.85;;
44384;SDS011;30101;32.778;34.994;2022-08-02T00:16:37;13.23;;;6.93;;
44384;SDS011;30101;32.778;34.994;2022-08-02T00:21:41;15.63;;;7.07;;
44384;SDS011;30101;32.778;34.994;2022-08-02T00:26:44;12.05;;;7.07;;
44384;SDS011;30101;32.778;34.994;2022-08-02T00:31:48;16.27;;;7.10;;
44384;SDS011;30101;32.778;34.994;2022-08-02T00:36:52;15.23;;;6.70;;
44384;SDS011;30101;32.778;34.994;2022-08-02T00:41:55;13.00;;;6.75;;
44384;SDS011;30101;32.778;34.994;2022-08-02T00:46:59;14.15;;;6.38;;
44384;SDS011;30101;32.778;34.994;2022-08-02T00:52:03;13.23;;;6.60;;
44384;SDS011;30101;32.778;34.994;2022-08-02T00:57:07;10.23;;;6.90;;
44384;SDS011;30101;32.778;34.994;2022-08-02T01:02:11;9.90;;;6.35;;
44384;SDS011;30101;32.778;34.994;2022-08-02T01:07:15;13.60;;;7.22;;
44384;SDS011;30101;32.778;34.994;2022-08-02T01:12:18;10.85;;;6.45;;
44384;SDS011;30101;32.778;34.994;2022-08-02T01:17:37;13.38;;;6.13;;
44384;SDS011;30101;32.778;34.994;2022-08-02T01:23:08;14.02;;;6.65;;
44384;SDS011;30101;32.778;34.994;2022-08-02T01:33:27;10.48;;;6.95;;
44384;SDS011;30101;32.778;34.994;2022-08-02T01:38:38;20.83;;;6.93;;
44384;SDS011;30101;32.778;34.994;2022-08-02T01:43:45;18.80;;;7.72;;
44384;SDS011;30101;32.778;34.994;2022-08-02T01:48:52;13.43;;;7.18;;
44384;SDS011;30101;32.778;34.994;2022-08-02T01:53:58;15.75;;;8.27;;
44384;SDS011;30101;32.778;34.994;2022-08-02T01:59:02;12.93;;;7.03;;
44384;SDS011;30101;32.778;34.994;2022-08-02T02:04:11;14.32;;;7.35;;
44384;SDS011;30101;32.778;34.994;2022-08-02T02:09:34;9.50;;;6.68;;
44384;SDS011;30101;32.778;34.994;2022-08-02T02:14:53;15.15;;;7.47;;
44384;SDS011;30101;32.778;34.994;2022-08-02T02:19:58;14.20;;;7.18;;
44384;SDS011;30101;32.778;34.994;2022-08-02T02:25:06;15.55;;;8.10;;
44384;SDS011;30101;32.778;34.994;2022-08-02T02:30:13;15.05;;;7.68;;
44384;SDS011;30101;32.778;34.994;2022-08-02T02:35:26;16.92;;;8.05;;
44384;SDS011;30101;32.778;34.994;2022-08-02T02:40:32;17.27;;;7.80;;
44384;SDS011;30101;32.778;34.994;2022-08-02T02:45:39;11.00;;;7.50;;
44384;SDS011;30101;32.778;34.994;2022-08-02T02:50:47;10.95;;;7.25;;
44384;SDS011;30101;32.778;34.994;2022-08-02T02:55:53;11.77;;;7.75;;
44384;SDS011;30101;32.778;34.994;2022-08-02T03:01:07;15.18;;;7.88;;
44384;SDS011;30101;32.778;34.994;2022-08-02T03:06:11;16.10;;;8.38;;
44384;SDS011;30101;32.778;34.994;2022-08-02T03:11:17;12.43;;;8.27;;
44384;SDS011;30101;32.778;34.994;2022-08-02T03:16:21;12.73;;;7.57;;
44384;SDS011;30101;32.778;34.994;2022-08-02T03:21:25;13.10;;;8.90;;
44384;SDS011;30101;32.778;34.994;2022-08-02T03:26:33;19.70;;;8.60;;
44384;SDS011;30101;32.778;34.994;2022-08-02T03:31:39;12.07;;;8.57;;
44384;SDS011;30101;32.778;34.994;2022-08-02T03:36:47;15.13;;;7.93;;
44384;SDS011;30101;32.778;34.994;2022-08-02T03:41:52;15.65;;;9.32;;
44384;SDS011;30101;32.778;34.994;2022-08-02T03:46:57;18.67;;;9.27;;
44384;SDS011;30101;32.778;34.994;2022-08-02T03:52:01;17.40;;;9.65;;
44384;SDS011;30101;32.778;34.994;2022-08-02T03:57:05;15.57;;;10.45;;
44384;SDS011;30101;32.778;34.994;2022-08-02T04:02:12;17.48;;;9.40;;
44384;SDS011;30101;32.778;34.994;2022-08-02T04:07:16;23.95;;;10.15;;
44384;SDS011;30101;32.778;34.994;2022-08-02T04:12:40;19.40;;;10.20;;
44384;SDS011;30101;32.778;34.994;2022-08-02T04:17:47;20.15;;;11.05;;
44384;SDS011;30101;32.778;34.994;2022-08-02T04:23:03;16.13;;;11.68;;
44384;SDS011;30101;32.778;34.994;2022-08-02T04:28:09;23.73;;;11.35;;
44384;SDS011;30101;32.778;34.994;2022-08-02T04:33:19;16.98;;;11.57;;
44384;SDS011;30101;32.778;34.994;2022-08-02T04:38:23;19.50;;;10.35;;
44384;SDS011;30101;32.778;34.994;2022-08-02T04:43:27;16.25;;;10.98;;
44384;SDS011;30101;32.778;34.994;2022-08-02T04:48:31;23.50;;;11.40;;
44384;SDS011;30101;32.778;34.994;2022-08-02T04:53:34;18.85;;;10.60;;
44384;SDS011;30101;32.778;34.994;2022-08-02T04:58:38;17.88;;;11.30;;
44384;SDS011;30101;32.778;34.994;2022-08-02T05:03:42;19.73;;;10.93;;
44384;SDS011;30101;32.778;34.994;2022-08-02T05:08:49;16.85;;;9.90;;
44384;SDS011;30101;32.778;34.994;2022-08-02T05:13:54;19.02;;;11.40;;
44384;SDS011;30101;32.778;34.994;2022-08-02T05:19:01;17.40;;;10.63;;
44384;SDS011;30101;32.778;34.994;2022-08-02T05:24:05;15.07;;;9.88;;
44384;SDS011;30101;32.778;34.994;2022-08-02T05:29:09;19.17;;;10.25;;
44384;SDS011;30101;32.778;34.994;2022-08-02T05:34:12;16.55;;;9.80;;
44384;SDS011;30101;32.778;34.994;2022-08-02T05:39:15;18.55;;;11.27;;
44384;SDS011;30101;32.778;34.994;2022-08-02T05:44:21;19.10;;;10.75;;
44384;SDS011;30101;32.778;34.994;2022-08-02T05:49:26;14.63;;;10.07;;
44384;SDS011;30101;32.778;34.994;2022-08-02T05:54:36;22.35;;;11.95;;
44384;SDS011;30101;32.778;34.994;2022-08-02T06:00:05;34.97;;;12.30;;
44384;SDS011;30101;32.778;34.994;2022-08-02T06:05:15;24.23;;;12.77;;
44384;SDS011;30101;32.778;34.994;2022-08-02T06:10:22;20.75;;;10.52;;
44384;SDS011;30101;32.778;34.994;2022-08-02T06:15:29;14.63;;;9.65;;
44384;SDS011;30101;32.778;34.994;2022-08-02T06:20:34;24.40;;;10.88;;
44384;SDS011;30101;32.778;34.994;2022-08-02T06:25:38;21.92;;;11.25;;
44384;SDS011;30101;32.778;34.994;2022-08-02T06:30:53;20.73;;;8.88;;
44384;SDS011;30101;32.778;34.994;2022-08-02T06:41:12;19.80;;;9.00;;
44384;SDS011;30101;32.778;34.994;2022-08-02T06:46:17;12.10;;;8.60;;
44384;SDS011;30101;32.778;34.994;2022-08-02T06:51:42;20.10;;;8.80;;
44384;SDS011;30101;32.778;34.994;2022-08-02T06:56:51;16.15;;;8.15;;
44384;SDS011;30101;32.778;34.994;2022-08-02T07:01:55;13.73;;;8.85;;
44384;SDS011;30101;32.778;34.994;2022-08-02T07:06:59;18.00;;;9.05;;
44384;SDS011;30101;32.778;34.994;2022-08-02T07:12:03;13.82;;;8.57;;
44384;SDS011;30101;32.778;34.994;2022-08-02T07:17:08;10.60;;;8.38;;
44384;SDS011;30101;32.778;34.994;2022-08-02T07:22:11;14.07;;;8.82;;
44384;SDS011;30101;32.778;34.994;2022-08-02T07:27:15;14.18;;;9.05;;
44384;SDS011;30101;32.778;34.994;2022-08-02T07:32:19;15.98;;;10.70;;
44384;SDS011;30101;32.778;34.994;2022-08-02T07:37:27;13.07;;;9.15;;
44384;SDS011;30101;32.778;34.994;2022-08-02T07:42:54;14.43;;;9.65;;
44384;SDS011;30101;32.778;34.994;2022-08-02T07:48:04;22.38;;;10.32;;
44384;SDS011;30101;32.778;34.994;2022-08-02T07:53:09;21.38;;;9.88;;
44384;SDS011;30101;32.778;34.994;2022-08-02T07:58:19;18.33;;;9.40;;
44384;SDS011;30101;32.778;34.994;2022-08-02T08:03:22;14.73;;;9.93;;
44384;SDS011;30101;32.778;34.994;2022-08-02T08:08:26;16.60;;;9.23;;
44384;SDS011;30101;32.778;34.994;2022-08-02T08:13:30;11.88;;;9.40;;
44384;SDS011;30101;32.778;34.994;2022-08-02T08:18:35;10.88;;;7.93;;
44384;SDS011;30101;32.778;34.994;2022-08-02T08:23:43;16.17;;;8.50;;
44384;SDS011;30101;32.778;34.994;2022-08-02T08:28:46;13.32;;;8.18;;
44384;SDS011;30101;32.778;34.994;2022-08-02T08:33:50;14.10;;;8.52;;
44384;SDS011;30101;32.778;34.994;2022-08-02T08:38:54;12.82;;;8.98;;
44384;SDS011;30101;32.778;34.994;2022-08-02T08:43:57;20.10;;;9.85;;
44384;SDS011;30101;32.778;34.994;2022-08-02T08:49:22;18.17;;;9.35;;
44384;SDS011;30101;32.778;34.994;2022-08-02T08:54:29;16.25;;;9.82;;
44384;SDS011;30101;32.778;34.994;2022-08-02T08:59:34;17.10;;;9.35;;
44384;SDS011;30101;32.778;34.994;2022-08-02T09:04:41;15.77;;;8.60;;
44384;SDS011;30101;32.778;34.994;2022-08-02T09:09:57;20.75;;;8.40;;
44384;SDS011;30101;32.778;34.994;2022-08-02T09:15:03;12.00;;;7.63;;
44384;SDS011;30101;32.778;34.994;2022-08-02T09:20:07;13.73;;;8.65;;
44384;SDS011;30101;32.778;34.994;2022-08-02T09:25:14;15.75;;;8.43;;
44384;SDS011;30101;32.778;34.994;2022-08-02T09:30:17;16.38;;;8.75;;
44384;SDS011;30101;32.778;34.994;2022-08-02T09:35:36;21.35;;;9.18;;
44384;SDS011;30101;32.778;34.994;2022-08-02T09:41:01;18.00;;;7.95;;
44384;SDS011;30101;32.778;34.994;2022-08-02T09:46:12;14.18;;;7.78;;
44384;SDS011;30101;32.778;34.994;2022-08-02T09:51:25;18.10;;;8.00;;
44384;SDS011;30101;32.778;34.994;2022-08-02T09:56:38;15.27;;;7.88;;
44384;SDS011;30101;32.778;34.994;2022-08-02T10:01:53;11.82;;;7.18;;
44384;SDS011;30101;32.778;34.994;2022-08-02T10:07:03;13.95;;;7.72;;
44384;SDS011;30101;32.778;34.994;2022-08-02T10:12:07;16.55;;;7.57;;
44384;SDS011;30101;32.778;34.994;2022-08-02T10:17:11;19.58;;;7.97;;
44384;SDS011;30101;32.778;34.994;2022-08-02T10:22:17;30.25;;;9.40;;
44384;SDS011;30101;32.778;34.994;2022-08-02T10:27:22;14.57;;;7.80;;
44384;SDS011;30101;32.778;34.994;2022-08-02T10:32:29;13.60;;;7.50;;
44384;SDS011;30101;32.778;34.994;2022-08-02T10:37:39;16.13;;;7.57;;
44384;SDS011;30101;32.778;34.994;2022-08-02T10:42:46;17.23;;;8.05;;
44384;SDS011;30101;32.778;34.994;2022-08-02T10:53:21;19.23;;;8.50;;
44384;SDS011;30101;32.778;34.994;2022-08-02T10:58:30;11.63;;;7.88;;
44384;SDS011;30101;32.778;34.994;2022-08-02T11:03:38;12.43;;;7.30;;
44384;SDS011;30101;32.778;34.994;2022-08-02T11:08:43;12.63;;;7.97;;
44384;SDS011;30101;32.778;34.994;2022-08-02T11:14:03;12.25;;;7.43;;
44384;SDS011;30101;32.778;34.994;2022-08-02T11:19:08;16.50;;;7.68;;
44384;SDS011;30101;32.778;34.994;2022-08-02T11:34:41;12.85;;;7.85;;
44384;SDS011;30101;32.778;34.994;2022-08-02T11:39:49;13.10;;;7.65;;
44384;SDS011;30101;32.778;34.994;2022-08-02T11:44:53;14.65;;;6.88;;
44384;SDS011;30101;32.778;34.994;2022-08-02T11:50:06;15.82;;;8.35;;
44384;SDS011;30101;32.778;34.994;2022-08-02T11:55:11;12.55;;;7.47;;
44384;SDS011;30101;32.778;34.994;2022-08-02T12:00:26;16.38;;;7.38;;
44384;SDS011;30101;32.778;34.994;2022-08-02T12:05:33;13.15;;;6.90;;
44384;SDS011;30101;32.778;34.994;2022-08-02T12:10:59;28.02;;;8.82;;
44384;SDS011;30101;32.778;34.994;2022-08-02T12:16:11;11.40;;;6.65;;
44384;SDS011;30101;32.778;34.994;2022-08-02T12:21:24;15.35;;;7.90;;
44384;SDS011;30101;32.778;34.994;2022-08-02T12:26:30;16.33;;;7.70;;
44384;SDS011;30101;32.778;34.994;2022-08-02T12:31:44;21.05;;;7.85;;
44384;SDS011;30101;32.778;34.994;2022-08-02T12:37:06;14.93;;;8.77;;
44384;SDS011;30101;32.778;34.994;2022-08-02T12:42:13;11.60;;;7.32;;
44384;SDS011;30101;32.778;34.994;2022-08-02T12:47:18;15.60;;;7.47;;
44384;SDS011;30101;32.778;34.994;2022-08-02T12:52:23;13.38;;;7.93;;
44384;SDS011;30101;32.778;34.994;2022-08-02T12:57:26;12.07;;;7.22;;
44384;SDS011;30101;32.778;34.994;2022-08-02T13:02:30;19.02;;;7.38;;
44384;SDS011;30101;32.778;34.994;2022-08-02T13:07:34;16.55;;;7.60;;
44384;SDS011;30101;32.778;34.994;2022-08-02T13:12:38;12.82;;;7.10;;
44384;SDS011;30101;32.778;34.994;2022-08-02T13:17:42;14.13;;;7.68;;
44384;SDS011;30101;32.778;34.994;2022-08-02T13:22:46;12.50;;;8.07;;
44384;SDS011;30101;32.778;34.994;2022-08-02T13:27:55;17.60;;;7.05;;
44384;SDS011;30101;32.778;34.994;2022-08-02T13:32:59;13.40;;;7.78;;
44384;SDS011;30101;32.778;34.994;2022-08-02T13:38:04;15.48;;;8.25;;
44384;SDS011;30101;32.778;34.994;2022-08-02T13:43:08;12.13;;;7.60;;
44384;SDS011;30101;32.778;34.994;2022-08-02T13:48:11;14.18;;;7.70;;
44384;SDS011;30101;32.778;34.994;2022-08-02T13:53:20;15.15;;;7.53;;
44384;SDS011;30101;32.778;34.994;2022-08-02T13:58:24;14.98;;;8.18;;
44384;SDS011;30101;32.778;34.994;2022-08-02T14:03:31;11.27;;;7.55;;
44384;SDS011;30101;32.778;34.994;2022-08-02T14:08:54;13.60;;;8.05;;
44384;SDS011;30101;32.778;34.994;2022-08-02T14:13:58;14.77;;;8.82;;
44384;SDS011;30101;32.778;34.994;2022-08-02T14:19:02;18.08;;;8.57;;
44384;SDS011;30101;32.778;34.994;2022-08-02T14:24:19;12.80;;;7.38;;
44384;SDS011;30101;32.778;34.994;2022-08-02T14:29:23;13.05;;;7.97;;
44384;SDS011;30101;32.778;34.994;2022-08-02T14:34:27;15.57;;;8.32;;
44384;SDS011;30101;32.778;34.994;2022-08-02T14:39:31;16.00;;;8.32;;
44384;SDS011;30101;32.778;34.994;2022-08-02T14:44:55;17.95;;;8.05;;
44384;SDS011;30101;32.778;34.994;2022-08-02T14:49:59;12.63;;;8.07;;
44384;SDS011;30101;32.778;34.994;2022-08-02T14:55:05;16.90;;;8.88;;
44384;SDS011;30101;32.778;34.994;2022-08-02T15:00:09;13.02;;;8.82;;
44384;SDS011;30101;32.778;34.994;2022-08-02T15:05:13;11.68;;;8.05;;
44384;SDS011;30101;32.778;34.994;2022-08-02T15:10:16;13.20;;;9.35;;
44384;SDS011;30101;32.778;34.994;2022-08-02T15:15:20;18.95;;;9.25;;
44384;SDS011;30101;32.778;34.994;2022-08-02T15:20:24;14.77;;;9.70;;
44384;SDS011;30101;32.778;34.994;2022-08-02T15:25:28;17.73;;;9.52;;
44384;SDS011;30101;32.778;34.994;2022-08-02T15:30:32;13.63;;;9.40;;
44384;SDS011;30101;32.778;34.994;2022-08-02T15:35:36;15.20;;;8.63;;
44384;SDS011;30101;32.778;34.994;2022-08-02T15:40:41;17.35;;;9.45;;
44384;SDS011;30101;32.778;34.994;2022-08-02T15:45:44;16.92;;;9.27;;
44384;SDS011;30101;32.778;34.994;2022-08-02T15:50:48;13.93;;;9.15;;
44384;SDS011;30101;32.778;34.994;2022-08-02T15:55:52;19.85;;;10.35;;
44384;SDS011;30101;32.778;34.994;2022-08-02T16:01:09;17.90;;;9.88;;
44384;SDS011;30101;32.778;34.994;2022-08-02T16:06:13;14.60;;;9.80;;
44384;SDS011;30101;32.778;34.994;2022-08-02T16:11:18;16.58;;;9.90;;
44384;SDS011;30101;32.778;34.994;2022-08-02T16:16:22;15.00;;;10.20;;
44384;SDS011;30101;32.778;34.994;2022-08-02T16:21:31;20.50;;;10.73;;
44384;SDS011;30101;32.778;34.994;2022-08-02T16:26:39;17.98;;;11.00;;
44384;SDS011;30101;32.778;34.994;2022-08-02T16:31:42;15.35;;;10.50;;
44384;SDS011;30101;32.778;34.994;2022-08-02T16:36:46;14.68;;;10.50;;
44384;SDS011;30101;32.778;34.994;2022-08-02T16:41:51;16.88;;;10.13;;
44384;SDS011;30101;32.778;34.994;2022-08-02T16:46:57;19.98;;;11.75;;
44384;SDS011;30101;32.778;34.994;2022-08-02T16:52:03;17.73;;;11.50;;
44384;SDS011;30101;32.778;34.994;2022-08-02T16:57:11;18.73;;;11.25;;
44384;SDS011;30101;32.778;34.994;2022-08-02T17:02:17;19.00;;;11.82;;
44384;SDS011;30101;32.778;34.994;2022-08-02T17:07:21;19.27;;;11.45;;
44384;SDS011;30101;32.778;34.994;2022-08-02T17:12:44;16.98;;;10.68;;
44384;SDS011;30101;32.778;34.994;2022-08-02T17:17:53;18.27;;;12.57;;
44384;SDS011;30101;32.778;34.994;2022-08-02T17:22:57;16.70;;;12.35;;
44384;SDS011;30101;32.778;34.994;2022-08-02T17:28:03;19.48;;;11.40;;
44384;SDS011;30101;32.778;34.994;2022-08-02T17:33:11;15.30;;;12.40;;
44384;SDS011;30101;32.778;34.994;2022-08-02T17:38:15;16.60;;;12.68;;
44384;SDS011;30101;32.778;34.994;2022-08-02T17:43:19;21.30;;;12.57;;
44384;SDS011;30101;32.778;34.994;2022-08-02T17:48:23;21.52;;;12.50;;
44384;SDS011;30101;32.778;34.994;2022-08-02T17:53:38;18.55;;;11.75;;
44384;SDS011;30101;32.778;34.994;2022-08-02T17:58:41;18.52;;;12.75;;
44384;SDS011;30101;32.778;34.994;2022-08-02T18:03:55;20.25;;;11.82;;
44384;SDS011;30101;32.778;34.994;2022-08-02T18:09:00;20.15;;;13.30;;
44384;SDS011;30101;32.778;34.994;2022-08-02T18:14:07;17.65;;;12.82;;
44384;SDS011;30101;32.778;34.994;2022-08-02T18:19:15;23.92;;;13.23;;
44384;SDS011;30101;32.778;34.994;2022-08-02T18:24:24;21.60;;;12.43;;
44384;SDS011;30101;32.778;34.994;2022-08-02T18:29:30;18.67;;;13.45;;
44384;SDS011;30101;32.778;34.994;2022-08-02T18:34:41;23.67;;;13.13;;
44384;SDS011;30101;32.778;34.994;2022-08-02T18:40:04;17.85;;;13.20;;
44384;SDS011;30101;32.778;34.994;2022-08-02T18:45:08;20.92;;;12.55;;
44384;SDS011;30101;32.778;34.994;2022-08-02T18:50:22;25.00;;;14.23;;
44384;SDS011;30101;32.778;34.994;2022-08-02T18:55:32;16.05;;;12.27;;
44384;SDS011;30101;32.778;34.994;2022-08-02T19:00:56;24.40;;;13.60;;
44384;SDS011;30101;32.778;34.994;2022-08-02T19:06:01;23.73;;;14.98;;
44384;SDS011;30101;32.778;34.994;2022-08-02T19:11:08;20.95;;;12.93;;
44384;SDS011;30101;32.778;34.994;2022-08-02T19:16:13;23.42;;;13.75;;
44384;SDS011;30101;32.778;34.994;2022-08-02T19:21:17;19.30;;;13.07;;
44384;SDS011;30101;32.778;34.994;2022-08-02T19:26:40;18.98;;;14.38;;
44384;SDS011;30101;32.778;34.994;2022-08-02T19:37:04;21.35;;;14.30;;
44384;SDS011;30101;32.778;34.994;2022-08-02T19:42:07;20.23;;;14.15;;
44384;SDS011;30101;32.778;34.994;2022-08-02T19:47:13;24.13;;;13.95;;
44384;SDS011;30101;32.778;34.994;2022-08-02T19:52:21;24.30;;;14.23;;
44384;SDS011;30101;32.778;34.994;2022-08-02T19:57:27;25.75;;;14.02;;
44384;SDS011;30101;32.778;34.994;2022-08-02T20:02:36;26.70;;;14.90;;
44384;SDS011;30101;32.778;34.994;2022-08-02T20:07:40;20.20;;;14.40;;
44384;SDS011;30101;32.778;34.994;2022-08-02T20:13:02;18.20;;;13.85;;
44384;SDS011;30101;32.778;34.994;2022-08-02T20:18:06;21.77;;;16.38;;
44384;SDS011;30101;32.778;34.994;2022-08-02T20:23:13;21.83;;;14.70;;
44384;SDS011;30101;32.778;34.994;2022-08-02T20:28:35;17.88;;;15.45;;
44384;SDS011;30101;32.778;34.994;2022-08-02T20:33:39;23.73;;;15.00;;
44384;SDS011;30101;32.778;34.994;2022-08-02T20:38:58;21.25;;;15.30;;
44384;SDS011;30101;32.778;34.994;2022-08-02T20:44:01;22.50;;;15.57;;
44384;SDS011;30101;32.778;34.994;2022-08-02T20:49:06;24.20;;;16.85;;
44384;SDS011;30101;32.778;34.994;2022-08-02T20:54:21;23.73;;;15.98;;
44384;SDS011;30101;32.778;34.994;2022-08-02T20:59:25;21.88;;;15.20;;
44384;SDS011;30101;32.778;34.994;2022-08-02T21:04:29;22.55;;;16.08;;
44384;SDS011;30101;32.778;34.994;2022-08-02T21:09:33;32.15;;;17.20;;
44384;SDS011;30101;32.778;34.994;2022-08-02T21:14:56;22.63;;;15.93;;
44384;SDS011;30101;32.778;34.994;2022-08-02T21:20:02;22.98;;;15.98;;
44384;SDS011;30101;32.778;34.994;2022-08-02T21:25:06;20.95;;;16.63;;
44384;SDS011;30101;32.778;34.994;2022-08-02T21:30:17;24.83;;;15.90;;
44384;SDS011;30101;32.778;34.994;2022-08-02T21:35:27;21.55;;;16.23;;
44384;SDS011;30101;32.778;34.994;2022-08-02T21:40:31;21.17;;;15.38;;
44384;SDS011;30101;32.778;34.994;2022-08-02T21:45:34;23.02;;;16.48;;
44384;SDS011;30101;32.778;34.994;2022-08-02T21:50:57;24.48;;;16.67;;
44384;SDS011;30101;32.778;34.994;2022-08-02T21:56:02;24.17;;;15.18;;
44384;SDS011;30101;32.778;34.994;2022-08-02T22:01:11;21.83;;;16.30;;
44384;SDS011;30101;32.778;34.994;2022-08-02T22:06:16;23.00;;;15.82;;
44384;SDS011;30101;32.778;34.994;2022-08-02T22:11:27;23.80;;;16.15;;
44384;SDS011;30101;32.778;34.994;2022-08-02T22:16:37;23.88;;;16.73;;
44384;SDS011;30101;32.778;34.994;2022-08-02T22:21:41;19.75;;;16.13;;
44384;SDS011;30101;32.778;34.994;2022-08-02T22:26:57;24.92;;;16.27;;
44384;SDS011;30101;32.778;34.994;2022-08-02T22:32:07;21.75;;;16.60;;
44384;SDS011;30101;32.778;34.994;2022-08-02T22:37:22;23.02;;;17.58;;
44384;SDS011;30101;32.778;34.994;2022-08-02T22:42:46;20.40;;;16.13;;
44384;SDS011;30101;32.778;34.994;2022-08-02T22:47:50;29.30;;;16.80;;
44384;SDS011;30101;32.778;34.994;2022-08-02T22:52:57;31.85;;;17.85;;
44384;SDS011;30101;32.778;34.994;2022-08-02T22:58:07;28.63;;;17.52;;
44384;SDS011;30101;32.778;34.994;2022-08-02T23:03:31;24.15;;;17.73;;
44384;SDS011;30101;32.778;34.994;2022-08-02T23:08:35;28.52;;;18.85;;
44384;SDS011;30101;32.778;34.994;2022-08-02T23:13:39;23.13;;;16.60;;
44384;SDS011;30101;32.778;34.994;2022-08-02T23:18:43;29.30;;;17.60;;
44384;SDS011;30101;32.778;34.994;2022-08-02T23:23:47;26.25;;;16.70;;
44384;SDS011;30101;32.778;34.994;2022-08-02T23:28:51;29.27;;;17.23;;
44384;SDS011;30101;32.778;34.994;2022-08-02T23:33:55;26.30;;;16.63;;
44384;SDS011;30101;32.778;34.994;2022-08-02T23:39:06;22.48;;;17.13;;
44384;SDS011;30101;32.778;34.994;2022-08-02T23:44:10;23.70;;;15.73;;
44384;SDS011;30101;32.778;34.994;2022-08-02T23:49:17;25.45;;;17.23;;
44384;SDS011;30101;32.778;34.994;2022-08-02T23:54:22;25.33;;;16.83;;
44384;SDS011;30101;32.778;34.994;2022-08-02T23:59:26;23.40;;;16.88;;
